Terminal Aerodrome Forecast
Issued by NWS

Home | Current Version | Previous Version | Text Only | Print | Product List | Glossary On
Versions: 1 2 3 4 5 6 7 8 9 10 11 12 13 14 15 16 17 18 19 20 21
000
FTUS43 KDVN 202331
TAFCID
TAF
KCID 202331Z 2100/2124 19008KT 5SM -SHRA OVC040
      TEMPO 2100/2102 3SM SHRA OVC030
     FM210500 25008KT 5SM BR BKN030
     FM210800 30006KT 2SM BR SCT008
     FM211600 27007KT P6SM SKC=

USA.gov is the U.S. government's official web portal to all federal, state and local government web resources and services.